Time;durP1;ratioP1;P1;durP2;ratioP2;P2;SDS_P1;SDS_P2;PMS_P1;PMS_P2;Temp;Humidity;BMP_temperature;BMP_pressure;BME280_temperature;BME280_humidity;BME280_pressure;Samples;Min_cycle;Max_cycle;Signal;HPM_P1;HPM_P2
2022/04/16 00:02:00;;;;;;;9.85;6.38;;;16.90;66.20;;;;;;5054868;28;20073;-63
2022/04/16 00:04:27;;;;;;;11.93;6.10;;;16.80;66.20;;;;;;5053799;28;20248;-64
2022/04/16 00:06:54;;;;;;;13.00;6.75;;;16.80;66.50;;;;;;5054761;28;20080;-64
2022/04/16 00:09:19;;;;;;;11.02;5.72;;;16.70;66.60;;;;;;5054570;28;20036;-63
2022/04/16 00:11:45;;;;;;;8.80;6.07;;;16.70;66.50;;;;;;5054416;28;20048;-64
2022/04/16 00:14:10;;;;;;;10.07;6.20;;;16.70;66.60;;;;;;5054244;28;20390;-63
2022/04/16 00:16:36;;;;;;;9.95;5.93;;;16.60;66.40;;;;;;5054331;28;20048;-63
2022/04/16 00:19:02;;;;;;;9.27;6.65;;;16.60;66.80;;;;;;5054197;28;20087;-63
2022/04/16 00:21:28;;;;;;;13.57;6.43;;;16.60;66.90;;;;;;5054570;28;20055;-64
2022/04/16 00:23:53;;;;;;;10.73;5.80;;;16.60;67.10;;;;;;5054690;28;20041;-64
2022/04/16 00:26:21;;;;;;;10.50;6.07;;;16.50;67.20;;;;;;5054416;28;20041;-63
2022/04/16 00:28:48;;;;;;;10.60;5.97;;;16.50;67.50;;;;;;5054132;28;20037;-63
2022/04/16 00:31:14;;;;;;;8.85;5.30;;;16.50;67.80;;;;;;5053933;28;20081;-63
2022/04/16 00:33:40;;;;;;;8.13;5.38;;;16.50;67.90;;;;;;5053894;28;20064;-64
2022/04/16 00:36:06;;;;;;;9.43;5.57;;;16.40;67.70;;;;;;5053976;28;20033;-64
2022/04/16 00:38:32;;;;;;;9.38;5.57;;;16.40;67.20;;;;;;5054279;28;20151;-64
2022/04/16 00:40:58;;;;;;;13.77;6.28;;;16.40;67.20;;;;;;5053854;28;20071;-64
2022/04/16 00:43:28;;;;;;;12.57;5.78;;;16.40;67.50;;;;;;5053883;28;20543;-63
2022/04/16 00:45:55;;;;;;;9.05;5.25;;;16.30;67.50;;;;;;5053605;28;20045;-63
2022/04/16 00:48:24;;;;;;;10.73;5.80;;;16.30;67.30;;;;;;5054175;28;20033;-64
2022/04/16 00:50:56;;;;;;;11.05;5.85;;;16.20;67.60;;;;;;5053240;28;20036;-64
2022/04/16 00:53:25;;;;;;;;;;;16.20;67.70;;;;;;5053378;28;20037;-64
2022/04/16 00:55:51;;;;;;;18.42;6.80;;;16.10;67.80;;;;;;5054678;28;19904;-64
2022/04/16 00:58:17;;;;;;;12.95;7.03;;;16.10;68.10;;;;;;5052791;28;20382;-64
2022/04/16 01:00:43;;;;;;;9.63;6.20;;;16.10;68.40;;;;;;5051457;28;20091;-63
2022/04/16 01:03:09;;;;;;;10.23;7.20;;;16.00;68.10;;;;;;5051763;28;20041;-64
2022/04/16 01:05:37;;;;;;;9.75;6.30;;;16.00;68.30;;;;;;5053394;28;20371;-64
2022/04/16 01:08:04;;;;;;;10.65;6.57;;;16.00;68.40;;;;;;5054196;28;20028;-63
2022/04/16 01:10:33;;;;;;;10.77;6.60;;;16.00;68.50;;;;;;5054093;28;20088;-63
2022/04/16 01:13:02;;;;;;;11.05;6.90;;;16.00;68.60;;;;;;5053742;28;20482;-64
2022/04/16 01:15:29;;;;;;;11.60;6.78;;;16.00;68.70;;;;;;5053920;28;20477;-63
2022/04/16 01:17:57;;;;;;;9.75;6.30;;;15.90;68.80;;;;;;5053688;28;20025;-63
2022/04/16 01:20:23;;;;;;;9.63;6.43;;;16.00;69.10;;;;;;5052592;28;20477;-64
2022/04/16 01:22:50;;;;;;;13.85;6.07;;;15.90;68.60;;;;;;5052287;28;20071;-64
2022/04/16 01:25:17;;;;;;;9.30;6.35;;;15.90;68.90;;;;;;5051656;28;20497;-63
2022/04/16 01:27:43;;;;;;;10.35;6.38;;;15.90;69.00;;;;;;5051975;28;20115;-63
2022/04/16 01:30:19;;;;;;;11.95;6.45;;;15.90;69.10;;;;;;5051458;28;20168;-64
2022/04/16 01:32:44;;;;;;;11.52;6.50;;;15.80;69.20;;;;;;5051215;28;20029;-65
2022/04/16 01:35:11;;;;;;;9.90;6.53;;;15.80;69.40;;;;;;5051418;28;20041;-64
2022/04/16 01:37:37;;;;;;;8.57;6.22;;;15.80;69.40;;;;;;5050413;28;20086;-64
2022/04/16 01:40:05;;;;;;;12.93;6.78;;;15.80;70.10;;;;;;5050471;28;20057;-64
2022/04/16 01:42:32;;;;;;;12.05;6.32;;;15.70;69.10;;;;;;5050104;28;20072;-64
2022/04/16 01:45:00;;;;;;;11.45;5.60;;;15.70;69.30;;;;;;5050797;28;20055;-64
2022/04/16 01:47:29;;;;;;;7.82;5.50;;;15.70;69.20;;;;;;5051061;28;20044;-64
2022/04/16 01:49:56;;;;;;;9.20;5.43;;;15.70;69.20;;;;;;5051265;28;20044;-64
2022/04/16 01:52:23;;;;;;;8.70;5.20;;;15.70;69.00;;;;;;5051260;28;20029;-64
2022/04/16 01:54:53;;;;;;;10.25;5.57;;;15.70;68.80;;;;;;5051204;28;20048;-64
2022/04/16 01:57:19;;;;;;;7.63;4.90;;;15.70;69.00;;;;;;5051417;28;20385;-63
2022/04/16 01:59:49;;;;;;;7.13;4.50;;;15.70;69.00;;;;;;5052515;28;20076;-64
2022/04/16 02:02:16;;;;;;;5.38;4.10;;;15.70;68.70;;;;;;5053257;28;20124;-63
2022/04/16 02:04:41;;;;;;;5.63;4.05;;;15.70;68.80;;;;;;5053112;28;20029;-64
2022/04/16 02:07:07;;;;;;;8.05;5.05;;;15.70;68.80;;;;;;5053482;28;20029;-64
2022/04/16 02:09:33;;;;;;;7.82;5.05;;;15.70;68.90;;;;;;5053214;28;20498;-63
2022/04/16 02:11:59;;;;;;;9.32;4.15;;;15.70;69.00;;;;;;5053013;28;20033;-63
2022/04/16 02:14:25;;;;;;;7.60;3.72;;;15.70;68.90;;;;;;5053277;28;20086;-64
2022/04/16 02:16:50;;;;;;;6.63;3.60;;;15.60;68.80;;;;;;5052489;28;20371;-65
2022/04/16 02:19:16;;;;;;;6.15;3.72;;;15.60;68.70;;;;;;5051871;28;20112;-64
2022/04/16 02:21:46;;;;;;;5.50;3.40;;;15.60;68.70;;;;;;5051298;28;20033;-64
2022/04/16 02:24:13;;;;;;;8.27;3.60;;;15.50;68.80;;;;;;5051325;28;20036;-64
2022/04/16 02:26:43;;;;;;;5.57;3.47;;;15.60;68.80;;;;;;5051178;28;20513;-64
2022/04/16 02:29:10;;;;;;;4.90;3.13;;;15.60;69.00;;;;;;5051169;28;20040;-64
2022/04/16 02:31:39;;;;;;;7.45;3.45;;;15.60;69.00;;;;;;5051598;28;20043;-64
2022/04/16 02:34:07;;;;;;;7.95;3.80;;;15.60;68.50;;;;;;5050643;28;20052;-63
2022/04/16 02:36:33;;;;;;;7.78;3.22;;;15.50;68.30;;;;;;5050802;28;20427;-63
2022/04/16 02:38:59;;;;;;;8.20;3.15;;;15.50;68.40;;;;;;5051337;28;20032;-64
2022/04/16 02:41:25;;;;;;;4.85;3.22;;;15.50;68.70;;;;;;5051331;28;20063;-64
2022/04/16 02:43:54;;;;;;;4.95;3.70;;;15.40;68.70;;;;;;5051027;28;20478;-64
2022/04/16 02:49:07;;;;;;;4.60;3.28;;;15.40;68.90;;;;;;5051065;28;20040;-64
2022/04/16 02:51:33;;;;;;;8.30;4.13;;;15.30;69.00;;;;;;5051134;28;20180;-64
2022/04/16 02:53:59;;;;;;;14.93;4.38;;;15.30;68.90;;;;;;5051244;28;20371;-64
2022/04/16 02:56:25;;;;;;;7.28;3.95;;;15.30;69.60;;;;;;5051551;28;20039;-64
2022/04/16 02:58:51;;;;;;;5.78;3.60;;;15.30;68.80;;;;;;5051465;28;20112;-64
2022/04/16 03:01:17;;;;;;;9.93;4.82;;;15.30;69.00;;;;;;5051480;28;20102;-64
2022/04/16 03:03:43;;;;;;;8.07;4.63;;;15.30;69.20;;;;;;5050925;28;20036;-64
2022/04/16 03:06:09;;;;;;;7.20;4.25;;;15.40;69.20;;;;;;5051141;28;20541;-64
2022/04/16 03:08:35;;;;;;;8.13;4.32;;;15.40;69.40;;;;;;5050758;28;20108;-63
2022/04/16 03:11:00;;;;;;;10.65;4.65;;;15.60;69.80;;;;;;5051469;28;20121;-64
2022/04/16 03:13:26;;;;;;;10.73;5.20;;;15.60;69.70;;;;;;5051192;28;20478;-64
2022/04/16 03:18:36;;;;;;;10.43;5.38;;;15.80;70.00;;;;;;5055113;28;20036;-64
2022/04/16 03:21:03;;;;;;;15.55;5.20;;;15.80;70.10;;;;;;5054888;28;20044;-64
2022/04/16 03:23:29;;;;;;;9.70;5.20;;;15.80;69.90;;;;;;5055272;28;20401;-64
2022/04/16 03:25:56;;;;;;;7.95;4.63;;;15.80;69.80;;;;;;5055106;28;20043;-63
2022/04/16 03:28:22;;;;;;;13.40;4.78;;;15.80;69.90;;;;;;5054837;28;20500;-64
2022/04/16 03:30:48;;;;;;;11.88;5.13;;;15.80;69.80;;;;;;5055195;28;20056;-64
2022/04/16 03:33:14;;;;;;;10.35;5.07;;;15.90;69.80;;;;;;5054637;28;20116;-64
2022/04/16 03:35:39;;;;;;;11.50;5.35;;;15.90;69.70;;;;;;5055024;28;20033;-65
2022/04/16 03:38:05;;;;;;;12.15;5.00;;;15.90;69.60;;;;;;5055102;28;20448;-64
2022/04/16 03:40:31;;;;;;;10.65;4.65;;;15.90;69.30;;;;;;5054724;28;20413;-64
2022/04/16 03:43:00;;;;;;;5.60;4.30;;;15.90;69.10;;;;;;5054796;28;20022;-63
2022/04/16 03:45:32;;;;;;;9.35;4.22;;;15.90;68.90;;;;;;5054749;28;20060;-64
2022/04/16 03:47:59;;;;;;;6.72;4.43;;;15.90;68.90;;;;;;5054998;28;20432;-64
2022/04/16 03:50:26;;;;;;;7.22;4.10;;;15.90;68.50;;;;;;5054496;28;20365;-64
2022/04/16 03:52:53;;;;;;;10.90;4.53;;;15.90;68.30;;;;;;5054860;28;20036;-64
2022/04/16 04:01:01;;;;;;;12.75;4.65;;;15.90;68.10;;;;;;5054022;28;20400;-64
2022/04/16 04:03:26;;;;;;;11.25;4.90;;;15.90;68.00;;;;;;5054141;28;20037;-64
2022/04/16 04:05:57;;;;;;;18.95;5.90;;;15.90;68.00;;;;;;5054241;28;20069;-64
2022/04/16 04:08:23;;;;;;;5.75;4.13;;;16.00;68.10;;;;;;5054002;28;20056;-64
2022/04/16 04:10:49;;;;;;;13.90;5.22;;;15.90;68.10;;;;;;5054131;28;20056;-64
2022/04/16 04:13:16;;;;;;;10.63;5.70;;;16.00;68.10;;;;;;5054361;28;20068;-64
2022/04/16 04:15:42;;;;;;;6.43;5.07;;;16.00;68.10;;;;;;5053852;28;20037;-64
2022/04/16 04:18:08;;;;;;;8.10;5.35;;;16.10;67.80;;;;;;5054370;28;20060;-63
2022/04/16 04:20:36;;;;;;;8.27;5.75;;;16.10;67.80;;;;;;5053053;28;20088;-64
2022/04/16 04:23:03;;;;;;;8.07;5.93;;;16.10;68.00;;;;;;5053155;28;20025;-64
2022/04/16 04:25:29;;;;;;;9.45;6.13;;;16.10;68.30;;;;;;5053313;28;20075;-64
2022/04/16 04:27:55;;;;;;;11.02;6.03;;;16.10;68.60;;;;;;5052629;28;20056;-64
2022/04/16 04:30:21;;;;;;;11.38;6.57;;;16.10;68.50;;;;;;5052527;28;20044;-64
2022/04/16 04:32:47;;;;;;;7.28;5.40;;;16.10;68.50;;;;;;5052860;28;20034;-65
2022/04/16 04:35:13;;;;;;;12.27;6.15;;;16.10;68.70;;;;;;5052583;28;20037;-65
2022/04/16 04:37:39;;;;;;;9.60;6.03;;;16.10;68.80;;;;;;5052860;28;20021;-64
2022/04/16 04:40:05;;;;;;;7.47;5.30;;;16.10;68.30;;;;;;5053080;28;20177;-63
2022/04/16 04:42:33;;;;;;;11.25;5.15;;;16.10;68.00;;;;;;5054804;28;20551;-64
2022/04/16 04:45:05;;;;;;;7.70;4.63;;;16.10;67.80;;;;;;5054358;28;20079;-64
2022/04/16 04:47:31;;;;;;;6.07;4.80;;;16.10;67.60;;;;;;5054757;28;20061;-63
2022/04/16 04:49:56;;;;;;;7.60;5.50;;;16.10;67.60;;;;;;5054650;28;20071;-64
2022/04/16 04:52:27;;;;;;;7.47;4.85;;;16.10;67.70;;;;;;5052120;28;20075;-65
2022/04/16 04:54:56;;;;;;;7.03;5.30;;;16.10;67.60;;;;;;5052334;28;20029;-64
2022/04/16 04:57:22;;;;;;;11.07;4.80;;;16.00;67.50;;;;;;5051706;28;20029;-64
2022/04/16 04:59:48;;;;;;;6.45;4.38;;;16.00;67.00;;;;;;5052005;28;20045;-64
2022/04/16 05:02:14;;;;;;;8.25;4.00;;;16.00;66.70;;;;;;5051767;28;20263;-64
2022/04/16 05:04:40;;;;;;;7.32;3.75;;;16.00;66.60;;;;;;5052408;28;20477;-64
2022/04/16 05:07:07;;;;;;;9.98;4.07;;;16.00;66.60;;;;;;5052091;28;20033;-63
2022/04/16 05:09:33;;;;;;;5.28;3.70;;;16.00;66.60;;;;;;5051651;28;20124;-63
2022/04/16 05:11:59;;;;;;;7.80;4.00;;;15.90;66.40;;;;;;5051558;28;20394;-63
2022/04/16 05:14:24;;;;;;;7.28;4.38;;;16.00;66.60;;;;;;5052334;28;20044;-63
2022/04/16 05:16:50;;;;;;;6.93;3.78;;;16.00;66.60;;;;;;5051676;28;20040;-64
2022/04/16 05:19:16;;;;;;;6.78;4.00;;;16.00;66.40;;;;;;5051768;28;20478;-64
2022/04/16 05:21:42;;;;;;;5.43;3.70;;;16.00;66.00;;;;;;5051173;28;20116;-64
2022/04/16 05:24:08;;;;;;;6.00;3.78;;;16.00;66.10;;;;;;5052107;28;20448;-64
2022/04/16 05:26:35;;;;;;;6.40;3.60;;;16.00;65.90;;;;;;5052458;28;20037;-63
2022/04/16 05:29:01;;;;;;;4.53;3.20;;;16.10;65.80;;;;;;5051589;28;20405;-64
2022/04/16 05:31:30;;;;;;;4.97;3.22;;;16.00;65.40;;;;;;5052755;28;20033;-63
2022/04/16 05:36:42;;;;;;;5.45;3.20;;;16.10;64.50;;;;;;5053762;28;20150;-63
2022/04/16 05:39:08;;;;;;;6.43;3.22;;;16.10;64.30;;;;;;5052281;28;20033;-64
2022/04/16 05:41:34;;;;;;;3.78;3.03;;;16.10;64.50;;;;;;5051918;28;20178;-63
2022/04/16 05:44:01;;;;;;;6.68;2.90;;;16.20;64.60;;;;;;5053650;28;20044;-63
2022/04/16 05:46:26;;;;;;;4.78;3.03;;;16.20;64.40;;;;;;5053095;28;20115;-63
2022/04/16 05:48:52;;;;;;;4.47;2.60;;;16.20;64.30;;;;;;5052918;28;20107;-63
2022/04/16 05:51:19;;;;;;;3.20;2.47;;;16.30;63.90;;;;;;5053401;28;20032;-63
2022/04/16 05:53:46;;;;;;;4.45;2.90;;;16.30;63.20;;;;;;5053349;28;20378;-64
2022/04/16 05:56:13;;;;;;;7.07;2.75;;;16.30;63.30;;;;;;5053383;28;20033;-63
2022/04/16 05:58:39;;;;;;;14.82;2.83;;;16.30;63.50;;;;;;5053181;28;20037;-63
2022/04/16 06:01:07;;;;;;;3.35;2.58;;;16.40;63.60;;;;;;5053097;28;20049;-63
2022/04/16 06:03:34;;;;;;;8.60;2.80;;;16.40;63.60;;;;;;5053358;28;20037;-63
2022/04/16 06:06:01;;;;;;;4.05;2.85;;;16.40;63.30;;;;;;5053368;28;20040;-63
2022/04/16 06:08:26;;;;;;;5.38;2.65;;;16.50;63.20;;;;;;5053529;28;20025;-63
2022/04/16 06:10:52;;;;;;;5.78;2.55;;;16.50;63.30;;;;;;5053132;28;20094;-64
2022/04/16 06:13:18;;;;;;;4.85;2.80;;;16.50;62.80;;;;;;5053325;28;20029;-64
2022/04/16 06:15:44;;;;;;;5.50;2.78;;;16.50;62.30;;;;;;5053119;28;20082;-63
2022/04/16 06:18:10;;;;;;;7.70;2.80;;;16.60;62.50;;;;;;5053065;28;20036;-63
2022/04/16 06:20:36;;;;;;;5.20;2.95;;;16.60;63.40;;;;;;5053017;28;20098;-63
2022/04/16 06:23:03;;;;;;;4.50;2.60;;;16.70;62.90;;;;;;5052981;28;20091;-63
2022/04/16 06:25:29;;;;;;;5.40;2.97;;;16.70;61.90;;;;;;5051188;28;20060;-63
2022/04/16 06:27:55;;;;;;;4.10;2.60;;;16.80;61.40;;;;;;5050106;28;20118;-65
2022/04/16 06:30:21;;;;;;;6.18;2.42;;;16.80;60.30;;;;;;5050096;28;20036;-64
2022/04/16 06:32:46;;;;;;;6.70;2.80;;;16.90;59.40;;;;;;5052447;28;20531;-64
2022/04/16 06:35:13;;;;;;;6.43;2.70;;;17.00;59.40;;;;;;5052616;28;20128;-65
2022/04/16 06:37:41;;;;;;;7.47;2.95;;;17.00;59.90;;;;;;5051476;28;20059;-64
2022/04/16 06:40:08;;;;;;;8.40;3.30;;;16.90;60.90;;;;;;5050112;28;20041;-64
2022/04/16 06:42:33;;;;;;;3.17;2.55;;;16.90;61.00;;;;;;5050582;28;20401;-64
2022/04/16 06:44:59;;;;;;;3.60;2.80;;;17.00;59.40;;;;;;5052680;28;20112;-63
2022/04/16 06:47:25;;;;;;;6.05;2.95;;;17.00;59.10;;;;;;5052654;28;20520;-68
2022/04/16 06:49:50;;;;;;;4.47;2.50;;;17.10;60.30;;;;;;5052774;28;20083;-65
2022/04/16 06:52:19;;;;;;;3.65;2.47;;;17.10;59.70;;;;;;5054837;28;20087;-64
2022/04/16 06:54:46;;;;;;;4.60;2.20;;;17.10;59.90;;;;;;5056773;28;20501;-64
2022/04/16 06:57:12;;;;;;;2.92;2.17;;;17.10;59.50;;;;;;5056777;28;20033;-65
2022/04/16 06:59:38;;;;;;;2.88;2.30;;;17.20;59.00;;;;;;5056609;28;20073;-64
2022/04/16 07:02:07;;;;;;;10.50;2.10;;;17.20;59.00;;;;;;5057207;28;20068;-64
2022/04/16 07:04:33;;;;;;;15.05;2.40;;;17.30;58.00;;;;;;5056712;28;20037;-65
2022/04/16 07:06:59;;;;;;;7.78;2.13;;;17.30;58.80;;;;;;5056707;28;20123;-64
2022/04/16 07:09:26;;;;;;;3.95;2.40;;;17.30;59.20;;;;;;5056817;28;20488;-62
2022/04/16 07:11:51;;;;;;;4.32;2.10;;;17.30;59.10;;;;;;5056627;28;20037;-62
2022/04/16 07:14:17;;;;;;;5.43;1.80;;;17.30;58.30;;;;;;5056194;28;20525;-61
2022/04/16 07:16:43;;;;;;;3.00;1.92;;;17.40;58.50;;;;;;5055520;28;20401;-62
2022/04/16 07:19:09;;;;;;;3.17;2.08;;;17.40;56.70;;;;;;5055007;28;20068;-62
2022/04/16 07:21:35;;;;;;;4.57;2.40;;;17.50;57.00;;;;;;5055688;28;20051;-62
2022/04/16 07:24:00;;;;;;;7.50;2.35;;;17.50;57.10;;;;;;5056516;28;20037;-61
2022/04/16 07:26:26;;;;;;;3.00;1.92;;;17.60;57.50;;;;;;5056419;28;20043;-61
2022/04/16 07:28:52;;;;;;;3.22;2.05;;;17.50;58.00;;;;;;5056208;28;20163;-61
2022/04/16 07:31:17;;;;;;;3.10;1.80;;;17.60;58.20;;;;;;5056136;28;20041;-62
2022/04/16 07:33:43;;;;;;;2.63;1.70;;;17.70;58.10;;;;;;5055907;28;20492;-61
2022/04/16 07:36:09;;;;;;;5.00;1.95;;;17.70;56.60;;;;;;5056047;28;20478;-61
2022/04/16 07:38:34;;;;;;;4.47;2.22;;;17.80;55.30;;;;;;5056488;28;20033;-61
2022/04/16 07:41:02;;;;;;;4.55;2.08;;;17.80;56.20;;;;;;5056576;28;20065;-61
2022/04/16 07:43:28;;;;;;;3.00;2.25;;;17.80;55.20;;;;;;5056497;28;20044;-61
2022/04/16 07:45:54;;;;;;;3.38;2.30;;;17.80;56.10;;;;;;5056092;28;20040;-62
2022/04/16 07:48:19;;;;;;;6.35;2.28;;;17.80;56.20;;;;;;5055922;28;20045;-61
2022/04/16 07:50:45;;;;;;;4.45;2.35;;;17.80;56.10;;;;;;5055962;28;20029;-62
2022/04/16 07:53:11;;;;;;;4.57;2.20;;;17.80;56.30;;;;;;5056125;28;20392;-61
2022/04/16 07:55:37;;;;;;;2.88;1.92;;;17.80;55.00;;;;;;5055784;28;20539;-61
2022/04/16 07:58:03;;;;;;;4.28;2.35;;;17.80;56.00;;;;;;5055882;28;20037;-61
2022/04/16 08:00:29;;;;;;;3.42;2.30;;;17.80;57.00;;;;;;5055662;28;20169;-62
2022/04/16 08:02:55;;;;;;;4.43;2.00;;;17.90;55.90;;;;;;5055799;28;20036;-61
2022/04/16 08:05:20;;;;;;;3.90;2.08;;;17.90;56.30;;;;;;5055908;28;20473;-61
2022/04/16 08:07:46;;;;;;;2.25;1.80;;;17.90;55.50;;;;;;5055858;28;20504;-61
2022/04/16 08:10:12;;;;;;;4.30;2.03;;;17.90;55.80;;;;;;5055875;28;20037;-61
2022/04/16 08:12:38;;;;;;;4.32;2.10;;;17.90;55.90;;;;;;5055746;28;20032;-62
2022/04/16 08:15:06;;;;;;;6.60;2.20;;;18.00;54.50;;;;;;5055785;28;20035;-61
2022/04/16 08:17:32;;;;;;;3.35;1.80;;;18.00;54.80;;;;;;5055595;28;20071;-62
2022/04/16 08:19:58;;;;;;;5.03;2.40;;;18.10;54.00;;;;;;5055239;28;20119;-62
2022/04/16 08:22:23;;;;;;;3.70;1.77;;;18.10;53.40;;;;;;5055572;28;20068;-61
2022/04/16 08:27:36;;;;;;;3.03;1.83;;;18.10;54.30;;;;;;5055886;28;20091;-61
2022/04/16 08:30:03;;;;;;;3.25;1.98;;;18.20;54.70;;;;;;5055219;28;20382;-62
2022/04/16 08:32:34;;;;;;;2.67;1.60;;;18.20;53.70;;;;;;5055481;28;20111;-61
2022/04/16 08:34:59;;;;;;;4.65;1.73;;;18.30;53.20;;;;;;5055286;28;20108;-62
2022/04/16 08:37:25;;;;;;;3.10;1.80;;;18.30;53.20;;;;;;5055308;28;20104;-61
2022/04/16 08:39:51;;;;;;;3.40;1.92;;;18.40;53.30;;;;;;5055118;28;20072;-62
2022/04/16 08:42:17;;;;;;;2.75;1.50;;;18.40;54.00;;;;;;5055115;28;20036;-61
2022/04/16 08:44:43;;;;;;;7.03;2.00;;;18.40;54.70;;;;;;5055160;28;20071;-61
2022/04/16 08:47:09;;;;;;;3.08;1.60;;;18.40;52.20;;;;;;5055113;28;20037;-61
2022/04/16 08:49:35;;;;;;;3.05;2.10;;;18.50;53.00;;;;;;5054955;28;20039;-62
2022/04/16 08:52:03;;;;;;;3.55;1.60;;;18.50;53.90;;;;;;5053701;28;20045;-62
2022/04/16 08:54:29;;;;;;;7.07;1.73;;;18.60;52.70;;;;;;5055184;28;20075;-62
2022/04/16 08:56:55;;;;;;;5.47;2.05;;;18.60;53.50;;;;;;5055111;28;20044;-62
2022/04/16 08:59:21;;;;;;;3.78;1.55;;;18.60;52.40;;;;;;5054842;28;20053;-61
2022/04/16 09:01:46;;;;;;;2.75;1.38;;;18.60;51.60;;;;;;5054815;28;20622;-62
2022/04/16 09:04:22;;;;;;;7.03;1.90;;;18.70;52.50;;;;;;5054522;28;20029;-62
2022/04/16 09:07:03;;;;;;;2.92;2.03;;;18.70;52.90;;;;;;5055133;28;20110;-61
2022/04/16 09:09:29;;;;;;;4.32;1.40;;;18.70;51.40;;;;;;5054978;28;20071;-61
2022/04/16 09:11:55;;;;;;;1.50;1.30;;;18.60;50.60;;;;;;5054664;28;20064;-62
2022/04/16 09:14:35;;;;;;;7.25;1.70;;;18.70;51.70;;;;;;5053664;28;20029;-61
2022/04/16 09:17:03;;;;;;;2.78;1.45;;;18.70;50.90;;;;;;5054710;28;20036;-61
2022/04/16 09:19:29;;;;;;;4.90;1.90;;;18.70;50.40;;;;;;5054693;28;20029;-62
2022/04/16 09:21:55;;;;;;;4.97;2.03;;;18.70;51.70;;;;;;5054382;28;20413;-61
2022/04/16 09:24:21;;;;;;;2.83;1.50;;;18.70;50.90;;;;;;5054288;28;20027;-62
2022/04/16 09:26:49;;;;;;;3.33;1.80;;;18.80;50.00;;;;;;5054324;28;20047;-62
2022/04/16 09:29:16;;;;;;;3.20;1.30;;;18.90;50.90;;;;;;5053921;28;20087;-62
2022/04/16 09:31:45;;;;;;;3.95;1.80;;;18.90;51.70;;;;;;5054426;28;20037;-61
2022/04/16 09:34:19;;;;;;;4.25;1.73;;;19.00;51.00;;;;;;5054419;28;20367;-62
2022/04/16 09:36:45;;;;;;;5.07;1.48;;;19.00;51.20;;;;;;5054148;28;20029;-61
2022/04/16 09:39:11;;;;;;;2.60;1.40;;;19.00;51.00;;;;;;5053903;28;20029;-61
2022/04/16 09:41:38;;;;;;;4.55;1.42;;;19.00;51.60;;;;;;5053678;28;20098;-63
2022/04/16 09:44:15;;;;;;;2.33;1.35;;;19.10;49.90;;;;;;5054094;28;20152;-62
2022/04/16 09:46:47;;;;;;;4.50;1.80;;;19.20;49.50;;;;;;5053832;28;20119;-62
2022/04/16 09:49:14;;;;;;;5.43;1.73;;;19.20;48.90;;;;;;5053967;28;20396;-62
2022/04/16 09:51:42;;;;;;;3.72;1.95;;;19.20;50.80;;;;;;5053692;28;20029;-62
2022/04/16 09:54:09;;;;;;;5.60;1.50;;;19.30;50.90;;;;;;5053878;28;20032;-62
2022/04/16 09:56:37;;;;;;;5.70;1.70;;;19.40;49.80;;;;;;5053615;28;20087;-62
2022/04/16 09:59:05;;;;;;;4.45;1.40;;;19.40;49.40;;;;;;5053626;28;20037;-62
2022/04/16 10:01:32;;;;;;;3.20;1.45;;;19.50;47.20;;;;;;5053539;28;20049;-61
2022/04/16 10:04:00;;;;;;;2.17;1.40;;;19.50;49.50;;;;;;5053778;28;20083;-62
2022/04/16 10:06:28;;;;;;;3.13;1.50;;;19.50;49.90;;;;;;5053460;28;20037;-62
2022/04/16 10:08:57;;;;;;;2.97;1.42;;;19.60;50.10;;;;;;5053438;28;20044;-62
2022/04/16 10:14:26;;;;;;;2.33;1.52;;;19.80;50.00;;;;;;5037535;28;20033;-62
2022/04/16 10:17:19;;;;;;;2.83;1.40;;;19.90;51.00;;;;;;5053423;28;20036;-62
2022/04/16 10:19:46;;;;;;;4.07;1.60;;;20.00;50.20;;;;;;5053678;28;20720;-62
2022/04/16 10:22:25;;;;;;;2.45;1.20;;;20.10;50.20;;;;;;5053241;28;20048;-61
2022/04/16 10:24:57;;;;;;;1.73;1.17;;;20.10;47.30;;;;;;5053409;28;20029;-62
2022/04/16 10:27:31;;;;;;;3.45;1.10;;;20.20;45.00;;;;;;5053512;28;20047;-62
2022/04/16 10:30:00;;;;;;;1.58;1.02;;;20.30;43.70;;;;;;5053215;28;20124;-62
2022/04/16 10:32:43;;;;;;;18.42;1.95;;;20.40;42.60;;;;;;5053368;28;20052;-61
2022/04/16 10:35:14;;;;;;;5.10;1.23;;;20.50;40.90;;;;;;5053267;28;20040;-61
2022/04/16 10:37:42;;;;;;;1.52;0.95;;;20.60;41.60;;;;;;5053214;28;20033;-62
2022/04/16 10:40:18;;;;;;;7.65;1.20;;;20.60;42.20;;;;;;5052934;28;20071;-62
2022/04/16 10:43:01;;;;;;;5.80;1.17;;;20.70;40.40;;;;;;5053108;28;20037;-62
2022/04/16 10:45:27;;;;;;;;;;;20.80;41.50;;;;;;5053675;28;20037;-62
2022/04/16 10:47:54;;;;;;;9.48;1.10;;;20.90;39.70;;;;;;5053522;28;20428;-62
2022/04/16 10:50:21;;;;;;;3.13;0.93;;;21.00;39.00;;;;;;5053074;28;20358;-62
2022/04/16 10:52:58;;;;;;;4.93;1.10;;;21.00;39.80;;;;;;5052706;28;20116;-62
2022/04/16 10:55:31;;;;;;;3.67;1.02;;;21.10;39.90;;;;;;5053250;28;20037;-62
2022/04/16 10:58:03;;;;;;;2.47;1.10;;;21.20;39.10;;;;;;5052985;28;20037;-62
2022/04/16 11:00:46;;;;;;;5.78;1.60;;;21.20;39.10;;;;;;5052581;28;20049;-62
2022/04/16 11:03:28;;;;;;;1.75;1.00;;;21.40;38.90;;;;;;5052959;28;20109;-62
2022/04/16 11:06:03;;;;;;;7.50;1.33;;;21.40;38.70;;;;;;5052808;28;20104;-62
2022/04/16 11:08:32;;;;;;;4.35;1.05;;;21.40;38.70;;;;;;5052730;28;20087;-62
2022/04/16 11:10:58;;;;;;;1.85;1.20;;;21.50;38.30;;;;;;5052842;28;20029;-63
2022/04/16 11:13:25;;;;;;;3.33;1.10;;;21.60;39.80;;;;;;5052444;28;20099;-62
2022/04/16 11:15:52;;;;;;;1.20;1.10;;;21.70;40.40;;;;;;5052893;28;20116;-62
2022/04/16 11:18:18;;;;;;;4.80;1.30;;;21.80;39.70;;;;;;5052971;28;20052;-62
2022/04/16 11:20:52;;;;;;;1.80;1.00;;;21.80;39.30;;;;;;5052651;28;20421;-62
2022/04/16 11:23:18;;;;;;;2.05;0.88;;;21.80;38.40;;;;;;5052692;28;20249;-62
2022/04/16 11:34:17;;;;;;;7.63;1.50;;;;;;;;;;5053068;28;20039;-62
2022/04/16 11:36:52;;;;;;;8.53;1.43;;;;;;;;;;5052333;28;20536;-62
2022/04/16 11:39:23;;;;;;;3.95;1.48;;;22.20;35.90;;;;;;5055887;28;20045;-62
2022/04/16 11:41:57;;;;;;;2.90;1.23;;;22.20;35.90;;;;;;5056035;28;20508;-62
2022/04/16 11:44:45;;;;;;;3.53;1.45;;;22.30;36.80;;;;;;5056065;28;20094;-62
2022/04/16 11:47:12;;;;;;;11.63;1.50;;;;;;;;;;5056514;28;20034;-62
2022/04/16 11:49:40;;;;;;;5.47;1.13;;;22.30;36.20;;;;;;5056174;28;20117;-62
2022/04/16 11:52:07;;;;;;;5.80;1.40;;;22.30;35.90;;;;;;5056054;28;20033;-63
2022/04/16 11:54:33;;;;;;;6.82;1.30;;;;;;;;;;5055988;28;20037;-63
2022/04/16 11:56:59;;;;;;;4.15;1.10;;;;;;;;;;5056029;28;20425;-63
2022/04/16 11:59:26;;;;;;;1.10;1.00;;;;;;;;;;5055522;28;20435;-62
2022/04/16 12:01:59;;;;;;;5.28;1.20;;;;;;;;;;5055820;28;20478;-62
2022/04/16 12:04:41;;;;;;;3.05;1.20;;;;;;;;;;5056112;28;20154;-62
2022/04/16 12:07:17;;;;;;;3.72;1.13;;;22.40;37.00;;;;;;5055825;28;20041;-62
2022/04/16 12:09:45;;;;;;;2.25;1.20;;;22.10;36.30;;;;;;5055513;28;20425;-62
2022/04/16 12:12:18;;;;;;;7.35;1.15;;;22.00;36.10;;;;;;5055532;28;20473;-63
2022/04/16 12:14:48;;;;;;;17.38;2.25;;;22.10;36.10;;;;;;5055871;28;20079;-63
2022/04/16 12:17:21;;;;;;;2.10;1.02;;;;;;;;;;5055604;28;20051;-62
2022/04/16 12:19:55;;;;;;;1.98;1.00;;;22.20;36.10;;;;;;5055522;28;20029;-63
2022/04/16 12:22:21;;;;;;;1.60;0.90;;;;;;;;;;5055507;28;20042;-62
2022/04/16 12:24:47;;;;;;;15.60;1.48;;;;;;;;;;5055795;28;20043;-62
2022/04/16 12:27:24;;;;;;;4.38;0.70;;;;;;;;;;5055701;28;20041;-62
2022/04/16 12:29:50;;;;;;;2.95;0.60;;;;;;;;;;5055260;28;20493;-62
2022/04/16 12:32:24;;;;;;;6.50;0.63;;;;;;;;;;5055019;28;20500;-62
2022/04/16 12:34:51;;;;;;;4.25;0.93;;;;;;;;;;5055154;28;20037;-62
2022/04/16 12:37:17;;;;;;;3.17;0.70;;;;;;;;;;5055406;28;20056;-61
2022/04/16 12:39:43;;;;;;;0.73;0.57;;;;;;;;;;5055011;28;20470;-62
2022/04/16 12:42:09;;;;;;;0.88;0.52;;;;;;;;;;5055163;28;20048;-62
2022/04/16 12:44:35;;;;;;;1.95;0.95;;;;;;;;;;5055095;28;20033;-64
2022/04/16 12:47:01;;;;;;;2.88;0.70;;;;;;;;;;5055226;28;20428;-62
2022/04/16 12:49:27;;;;;;;5.07;1.08;;;;;;;;;;5053917;28;20401;-62
2022/04/16 12:51:53;;;;;;;7.22;0.73;;;;;;;;;;5055099;28;20035;-62
2022/04/16 12:54:19;;;;;;;8.07;1.35;;;;;;;;;;5054815;28;20032;-62
2022/04/16 12:56:47;;;;;;;9.88;0.93;;;;;;;;;;5055042;28;20036;-62
2022/04/16 12:59:13;;;;;;;4.55;0.80;;;;;;;;;;5054572;28;20115;-62
2022/04/16 13:01:39;;;;;;;4.53;0.80;;;;;;;;;;5054778;28;20532;-62
2022/04/16 13:04:05;;;;;;;4.60;0.70;;;;;;;;;;5054612;28;20083;-61
2022/04/16 13:06:32;;;;;;;2.90;0.70;;;;;;;;;;5054650;28;20120;-62
2022/04/16 13:09:02;;;;;;;1.13;0.50;;;;;;;;;;5054589;28;20543;-62
2022/04/16 13:11:28;;;;;;;0.82;0.60;;;;;;;;;;5054583;28;20134;-62
2022/04/16 13:13:55;;;;;;;1.98;0.75;;;;;;;;;;5054458;28;20413;-62
2022/04/16 13:16:21;;;;;;;5.32;0.70;;;;;;;;;;5054262;28;20083;-61
2022/04/16 13:18:50;;;;;;;1.65;0.95;;;;;;;;;;5054441;28;20128;-62
2022/04/16 13:21:16;;;;;;;3.88;0.68;;;;;;;;;;5054449;28;20048;-62
2022/04/16 13:23:43;;;;;;;7.63;0.90;;;;;;;;;;5054566;28;20032;-62
2022/04/16 13:26:09;;;;;;;0.52;0.52;;;;;;;;;;5054329;28;20492;-62
2022/04/16 13:28:35;;;;;;;1.27;0.60;;;;;;;;;;5054255;28;20504;-61